createdAt,value
2022-12-25T00:01:25.494Z,50.38
2022-12-25T00:04:29.118Z,50.40
2022-12-25T00:07:32.550Z,53.78
2022-12-25T00:10:43.027Z,66.50
2022-12-25T00:13:48.727Z,69.20
2022-12-25T00:20:12.449Z,59.20
2022-12-25T00:23:15.564Z,63.67
2022-12-25T00:26:19.283Z,53.75
2022-12-25T00:29:22.533Z,37.35
2022-12-25T00:32:26.200Z,35.63
2022-12-25T00:35:29.217Z,45.30
2022-12-25T00:38:32.860Z,42.13
2022-12-25T00:41:55.009Z,41.42
2022-12-25T00:44:58.818Z,34.95
2022-12-25T00:48:08.511Z,38.05
2022-12-25T00:51:20.810Z,31.00
2022-12-25T00:54:35.176Z,35.70
2022-12-25T00:57:46.860Z,36.45
2022-12-25T01:00:59.266Z,35.78
2022-12-25T01:04:12.135Z,40.95
2022-12-25T01:07:24.521Z,33.30
2022-12-25T01:10:36.724Z,40.08
2022-12-25T01:13:50.564Z,39.40
2022-12-25T01:17:02.465Z,48.08
2022-12-25T01:20:08.323Z,39.95
2022-12-25T01:23:12.331Z,32.33
2022-12-25T01:29:39.249Z,29.77
2022-12-25T01:32:48.555Z,29.20
2022-12-25T01:35:56.493Z,27.00
2022-12-25T01:38:59.799Z,28.65
2022-12-25T01:42:03.325Z,30.73
2022-12-25T01:45:31.356Z,29.27
2022-12-25T01:48:37.989Z,47.65
2022-12-25T01:52:18.817Z,60.38
2022-12-25T01:55:28.902Z,41.10
2022-12-25T01:58:33.103Z,64.25
2022-12-25T02:01:39.140Z,65.00
2022-12-25T02:05:10.267Z,82.43
2022-12-25T02:08:21.347Z,84.28
2022-12-25T02:12:01.708Z,98.57
2022-12-25T02:15:34.082Z,132.38
2022-12-25T02:18:52.717Z,96.07
2022-12-25T02:22:33.676Z,124.38
2022-12-25T02:25:57.244Z,153.48
2022-12-25T02:29:21.414Z,147.13
2022-12-25T02:32:40.428Z,147.77
2022-12-25T02:35:51.197Z,140.13
2022-12-25T02:39:17.302Z,151.05
2022-12-25T02:42:51.397Z,153.88
2022-12-25T02:46:18.004Z,132.38
2022-12-25T02:49:46.598Z,142.25
2022-12-25T02:53:12.621Z,144.77
2022-12-25T02:56:37.034Z,163.07
2022-12-25T03:00:03.536Z,156.32
2022-12-25T03:07:14.800Z,153.52
2022-12-25T03:10:39.237Z,177.32
2022-12-25T03:13:46.363Z,164.07
2022-12-25T03:16:54.431Z,175.95
2022-12-25T03:20:17.075Z,178.63
2022-12-25T03:23:43.386Z,169.63
2022-12-25T03:26:56.255Z,153.77
2022-12-25T03:30:18.367Z,145.90
2022-12-25T03:34:10.449Z,154.00
2022-12-25T03:38:30.105Z,130.80
2022-12-25T03:42:10.776Z,134.30
2022-12-25T03:46:04.579Z,141.05
2022-12-25T03:53:24.600Z,142.77
2022-12-25T03:56:47.485Z,145.98
2022-12-25T04:00:09.697Z,135.98
2022-12-25T04:03:31.179Z,153.68
2022-12-25T04:06:52.917Z,147.70
2022-12-25T04:10:14.892Z,148.38
2022-12-25T04:13:37.088Z,151.35
2022-12-25T04:16:59.424Z,159.35
2022-12-25T04:20:20.994Z,165.32
2022-12-25T04:23:43.058Z,174.95
2022-12-25T04:27:04.587Z,176.52
2022-12-25T04:30:27.940Z,153.18
2022-12-25T04:33:49.920Z,158.13
2022-12-25T04:36:53.385Z,162.65
2022-12-25T04:39:56.946Z,172.25
2022-12-25T04:43:00.666Z,176.23
2022-12-25T04:46:05.961Z,184.15
2022-12-25T04:49:10.155Z,177.50
2022-12-25T04:52:13.227Z,187.98
2022-12-25T04:55:16.543Z,183.25
2022-12-25T04:58:19.967Z,185.68
2022-12-25T05:01:24.171Z,178.63
2022-12-25T05:04:27.307Z,174.32
2022-12-25T05:07:30.803Z,180.27
2022-12-25T05:10:33.917Z,172.68
2022-12-25T05:13:38.076Z,170.43
2022-12-25T05:16:41.645Z,169.80
2022-12-25T05:19:45.425Z,167.35
2022-12-25T05:22:48.699Z,161.80
2022-12-25T05:25:52.586Z,160.90
2022-12-25T05:28:56.818Z,162.38
2022-12-25T05:32:00.628Z,163.38
2022-12-25T05:35:04.913Z,156.70
2022-12-25T05:38:08.846Z,153.13
2022-12-25T05:41:12.793Z,143.98
2022-12-25T05:44:16.290Z,141.38
2022-12-25T05:47:20.481Z,129.27
2022-12-25T05:50:24.305Z,117.63
2022-12-25T05:53:41.054Z,100.32
2022-12-25T05:56:44.360Z,102.53
2022-12-25T05:59:48.384Z,68.32
2022-12-25T06:02:52.157Z,56.25
2022-12-25T06:05:56.541Z,43.45
2022-12-25T06:09:00.133Z,43.95
2022-12-25T06:12:04.215Z,66.95
2022-12-25T06:15:08.628Z,57.20
2022-12-25T06:18:15.781Z,63.80
2022-12-25T06:21:19.642Z,70.47
2022-12-25T06:24:25.186Z,67.28
2022-12-25T06:27:29.192Z,65.65
2022-12-25T06:30:32.688Z,68.18
2022-12-25T06:33:36.919Z,70.00
2022-12-25T06:36:41.103Z,86.65
2022-12-25T06:39:45.032Z,88.25
2022-12-25T06:42:48.459Z,98.18
2022-12-25T06:45:53.582Z,116.10
2022-12-25T06:48:58.878Z,115.70
2022-12-25T06:52:02.582Z,112.47
2022-12-25T06:55:06.673Z,117.32
2022-12-25T07:01:32.515Z,113.55
2022-12-25T07:04:41.278Z,108.13
2022-12-25T07:07:52.669Z,138.82
2022-12-25T07:11:00.591Z,153.45
2022-12-25T07:14:08.290Z,139.60
2022-12-25T07:17:16.290Z,130.35
2022-12-25T07:20:21.901Z,129.65
2022-12-25T07:23:31.423Z,128.10
2022-12-25T07:26:40.791Z,118.63
2022-12-25T07:29:47.807Z,141.98
2022-12-25T07:33:01.444Z,142.43
2022-12-25T07:36:12.494Z,126.78
2022-12-25T07:39:21.256Z,105.82
2022-12-25T07:42:28.379Z,115.95
2022-12-25T07:45:36.803Z,111.75
2022-12-25T07:52:05.539Z,106.43
2022-12-25T07:55:11.426Z,103.25
2022-12-25T07:58:23.132Z,107.45
2022-12-25T08:01:33.481Z,107.05
2022-12-25T08:04:40.311Z,105.97
2022-12-25T08:07:43.889Z,123.90
2022-12-25T08:10:48.564Z,125.18
2022-12-25T08:13:51.520Z,128.65
2022-12-25T08:20:14.410Z,142.38
2022-12-25T08:23:17.530Z,142.00
2022-12-25T08:26:24.007Z,140.02
2022-12-25T08:29:29.511Z,148.35
2022-12-25T08:32:36.010Z,151.20
2022-12-25T08:35:38.999Z,152.80
2022-12-25T08:38:42.698Z,148.98
2022-12-25T08:45:05.881Z,151.25
2022-12-25T08:48:09.598Z,150.70
2022-12-25T08:51:17.318Z,158.18
2022-12-25T08:54:20.317Z,159.05
2022-12-25T08:57:23.893Z,173.10
2022-12-25T09:00:27.702Z,173.57
2022-12-25T09:03:34.245Z,176.68
2022-12-25T09:06:39.325Z,172.33
2022-12-25T09:09:44.121Z,160.70
2022-12-25T09:12:47.519Z,169.70
2022-12-25T09:16:00.168Z,165.75
2022-12-25T09:19:05.783Z,156.80
2022-12-25T09:22:16.279Z,167.25
2022-12-25T09:25:29.343Z,165.70
2022-12-25T09:28:36.963Z,156.75
2022-12-25T09:31:45.917Z,152.23
2022-12-25T09:38:10.993Z,147.43
2022-12-25T09:41:35.257Z,104.75
2022-12-25T09:44:45.268Z,40.55
2022-12-25T09:47:50.269Z,45.25
2022-12-25T09:51:06.794Z,69.65
2022-12-25T09:54:38.708Z,57.20
2022-12-25T09:57:42.531Z,56.58
2022-12-25T10:01:03.330Z,59.83
2022-12-25T10:04:25.553Z,63.42
2022-12-25T10:07:45.006Z,98.18
2022-12-25T10:10:58.455Z,106.30
2022-12-25T10:14:28.071Z,116.10
2022-12-25T10:17:54.934Z,105.00
2022-12-25T10:21:00.838Z,85.07
2022-12-25T10:24:22.599Z,99.68
2022-12-25T10:28:04.981Z,50.95
2022-12-25T10:31:29.917Z,42.88
2022-12-25T10:34:34.295Z,43.13
2022-12-25T10:37:38.154Z,56.35
2022-12-25T10:40:42.156Z,50.47
2022-12-25T10:43:52.802Z,58.75
2022-12-25T10:47:01.579Z,44.72
2022-12-25T10:50:19.717Z,41.03
2022-12-25T10:53:30.466Z,39.50
2022-12-25T10:56:34.474Z,41.72
2022-12-25T11:00:00.294Z,43.45
2022-12-25T11:03:05.063Z,37.28
2022-12-25T11:06:29.754Z,49.65
2022-12-25T11:09:34.828Z,51.70
2022-12-25T11:12:44.904Z,65.35
2022-12-25T11:16:25.032Z,49.20
2022-12-25T11:19:32.964Z,48.35
2022-12-25T11:25:43.526Z,30.25
2022-12-25T11:28:49.612Z,34.55
2022-12-25T11:31:56.814Z,37.33
2022-12-25T11:35:03.858Z,50.92
2022-12-25T11:38:10.580Z,49.35
2022-12-25T11:41:21.583Z,60.42
2022-12-25T11:44:59.659Z,47.60
2022-12-25T11:48:10.775Z,57.05
2022-12-25T11:51:16.091Z,45.03
2022-12-25T11:54:55.202Z,39.60
2022-12-25T11:58:02.214Z,55.13
2022-12-25T12:01:17.092Z,48.45
2022-12-25T12:04:38.567Z,38.53
2022-12-25T12:07:59.332Z,57.42
2022-12-25T12:11:16.631Z,54.95
2022-12-25T12:14:35.451Z,35.20
2022-12-25T12:17:39.234Z,36.53
2022-12-25T12:20:43.356Z,41.90
2022-12-25T12:23:56.629Z,70.57
2022-12-25T12:27:23.428Z,55.70
2022-12-25T12:30:32.094Z,49.40
2022-12-25T12:33:45.260Z,49.88
2022-12-25T12:36:53.495Z,53.67
2022-12-25T12:39:59.877Z,51.63
2022-12-25T12:43:07.515Z,57.55
2022-12-25T12:46:31.287Z,62.85
2022-12-25T12:49:40.482Z,56.50
2022-12-25T12:52:45.580Z,50.38
2022-12-25T12:55:51.026Z,43.90
2022-12-25T12:58:54.878Z,47.47
2022-12-25T13:02:16.359Z,50.65
2022-12-25T13:05:22.620Z,45.25
2022-12-25T13:08:44.045Z,48.25
2022-12-25T13:11:48.671Z,37.90
2022-12-25T13:14:52.580Z,33.95
2022-12-25T13:18:01.921Z,34.60
2022-12-25T13:21:06.623Z,34.47
2022-12-25T13:24:24.517Z,31.73
2022-12-25T13:27:33.568Z,32.63
2022-12-25T13:30:37.440Z,34.92
2022-12-25T13:33:45.624Z,33.17
2022-12-25T13:36:49.531Z,35.08
2022-12-25T13:39:55.181Z,37.45
2022-12-25T13:43:02.707Z,38.35
2022-12-25T13:46:12.244Z,31.52
2022-12-25T13:49:19.137Z,33.58
2022-12-25T13:52:35.174Z,35.00
2022-12-25T13:55:39.442Z,34.78
2022-12-25T13:58:43.579Z,36.10
2022-12-25T14:01:48.637Z,37.03
2022-12-25T14:04:52.012Z,36.67
2022-12-25T14:07:58.042Z,33.92
2022-12-25T14:11:07.078Z,34.25
2022-12-25T14:14:17.205Z,36.03
2022-12-25T14:17:20.571Z,34.50
2022-12-25T14:20:36.384Z,22.10
2022-12-25T14:23:49.469Z,21.88
2022-12-25T14:27:06.770Z,22.92
2022-12-25T14:30:19.659Z,23.17
2022-12-25T14:33:28.453Z,25.15
2022-12-25T14:36:33.223Z,35.90
2022-12-25T14:39:39.346Z,54.30
2022-12-25T14:42:43.034Z,52.33
2022-12-25T14:45:56.615Z,56.97
2022-12-25T14:49:01.749Z,33.13
2022-12-25T14:52:29.892Z,30.77
2022-12-25T14:55:33.193Z,31.50
2022-12-25T14:58:45.903Z,35.80
2022-12-25T15:01:59.130Z,23.67
2022-12-25T15:05:03.215Z,21.27
2022-12-25T15:08:20.289Z,22.75
2022-12-25T15:14:28.458Z,27.60
2022-12-25T15:17:34.718Z,42.45
2022-12-25T15:20:38.428Z,45.63
2022-12-25T15:23:49.666Z,36.17
2022-12-25T15:26:54.453Z,33.90
2022-12-25T15:30:09.794Z,52.67
2022-12-25T15:33:17.543Z,61.85
2022-12-25T15:36:23.141Z,56.28
2022-12-25T15:42:56.405Z,63.92
2022-12-25T15:49:22.259Z,57.95
2022-12-25T15:52:25.650Z,65.15
2022-12-25T15:55:29.193Z,69.80
2022-12-25T16:01:55.500Z,40.00
2022-12-25T16:04:59.047Z,39.03
2022-12-25T16:08:02.120Z,39.58
2022-12-25T16:11:05.529Z,45.67
2022-12-25T16:14:08.728Z,46.95
2022-12-25T16:17:16.136Z,49.42
2022-12-25T16:20:23.382Z,55.35
2022-12-25T16:23:32.311Z,60.05
2022-12-25T16:26:41.707Z,58.67
2022-12-25T16:29:47.818Z,57.83
2022-12-25T16:32:55.422Z,57.50
2022-12-25T16:36:04.961Z,52.15
2022-12-25T16:39:13.373Z,54.17
2022-12-25T16:42:22.311Z,56.97
2022-12-25T16:45:31.610Z,58.75
2022-12-25T16:48:40.569Z,59.53
2022-12-25T16:51:50.631Z,66.43
2022-12-25T16:55:03.047Z,90.95
2022-12-25T16:58:13.920Z,126.00
2022-12-25T17:01:25.688Z,119.40
2022-12-25T17:04:35.367Z,87.15
2022-12-25T17:07:40.093Z,63.80
2022-12-25T17:10:47.379Z,54.90
2022-12-25T17:13:56.207Z,63.38
2022-12-25T17:17:08.531Z,48.05
2022-12-25T17:20:19.400Z,61.70
2022-12-25T17:23:30.889Z,55.35
2022-12-25T17:26:39.729Z,55.60
2022-12-25T17:29:50.479Z,53.47
2022-12-25T17:33:03.643Z,53.60
2022-12-25T17:36:19.295Z,61.63
2022-12-25T17:39:31.092Z,54.15
2022-12-25T17:42:43.918Z,49.85
2022-12-25T17:45:50.666Z,48.45
2022-12-25T17:49:00.136Z,42.08
2022-12-25T17:52:13.482Z,41.90
2022-12-25T17:55:23.835Z,49.50
2022-12-25T17:58:31.320Z,25.13
2022-12-25T18:01:41.253Z,23.98
2022-12-25T18:04:50.927Z,36.90
2022-12-25T18:08:00.270Z,39.85
2022-12-25T18:11:12.366Z,41.10
2022-12-25T18:14:22.736Z,42.90
2022-12-25T18:17:34.945Z,36.72
2022-12-25T18:20:49.642Z,36.97
2022-12-25T18:24:03.339Z,34.33
2022-12-25T18:27:18.423Z,31.73
2022-12-25T18:30:32.382Z,44.15
2022-12-25T18:33:45.006Z,36.72
2022-12-25T18:36:57.846Z,19.73
2022-12-25T18:40:11.139Z,25.58
2022-12-25T18:43:51.284Z,28.88
2022-12-25T18:46:55.415Z,26.23
2022-12-25T18:50:09.365Z,35.35
2022-12-25T18:53:21.969Z,36.25
2022-12-25T18:56:34.103Z,35.38
2022-12-25T18:59:45.692Z,42.53
2022-12-25T19:03:01.838Z,36.28
2022-12-25T19:06:15.616Z,36.88
2022-12-25T19:09:29.776Z,38.30
2022-12-25T19:12:44.549Z,53.00
2022-12-25T19:15:59.204Z,42.28
2022-12-25T19:19:14.788Z,71.05
2022-12-25T19:22:29.347Z,71.43
2022-12-25T19:25:44.349Z,48.42
2022-12-25T19:28:57.906Z,35.80
2022-12-25T19:32:09.317Z,49.83
2022-12-25T19:35:21.857Z,60.50
2022-12-25T19:38:33.341Z,59.78
2022-12-25T19:41:44.019Z,42.60
2022-12-25T19:44:56.645Z,46.15
2022-12-25T19:48:09.454Z,26.45
2022-12-25T19:51:31.197Z,38.38
2022-12-25T19:54:45.229Z,39.88
2022-12-25T19:57:51.707Z,48.78
2022-12-25T20:01:05.847Z,34.15
2022-12-25T20:04:11.815Z,35.50
2022-12-25T20:07:15.416Z,38.65
2022-12-25T20:10:19.476Z,28.75
2022-12-25T20:13:23.839Z,25.38
2022-12-25T20:16:27.521Z,27.27
2022-12-25T20:19:31.006Z,29.85
2022-12-25T20:22:34.140Z,33.30
2022-12-25T20:25:41.799Z,27.38
2022-12-25T20:28:46.374Z,31.45
2022-12-25T20:31:49.871Z,22.13
2022-12-25T20:34:52.835Z,26.13
2022-12-25T20:37:56.184Z,25.80
2022-12-25T20:44:28.319Z,19.13
2022-12-25T20:47:31.809Z,25.42
2022-12-25T20:50:34.877Z,29.33
2022-12-25T20:53:38.875Z,25.98
2022-12-25T20:56:43.127Z,21.15
2022-12-25T20:59:46.563Z,17.75
2022-12-25T21:02:50.189Z,28.80
2022-12-25T21:05:57.117Z,28.70
2022-12-25T21:09:00.653Z,23.27
2022-12-25T21:12:03.798Z,22.52
2022-12-25T21:15:15.014Z,12.45
2022-12-25T21:18:21.669Z,24.23
2022-12-25T21:21:24.830Z,26.08
2022-12-25T21:24:27.858Z,26.85
2022-12-25T21:27:31.533Z,30.90
2022-12-25T21:30:35.253Z,33.42
2022-12-25T21:33:54.133Z,30.92
2022-12-25T21:36:57.339Z,36.92
2022-12-25T21:40:01.310Z,28.88
2022-12-25T21:43:05.008Z,31.73
2022-12-25T21:46:11.646Z,29.55
2022-12-25T21:49:34.681Z,39.95
2022-12-25T21:52:38.264Z,24.73
2022-12-25T21:55:42.163Z,30.75
2022-12-25T21:58:45.767Z,36.13
2022-12-25T22:01:51.813Z,24.35
2022-12-25T22:04:55.509Z,19.77
2022-12-25T22:07:58.860Z,31.30
2022-12-25T22:11:05.806Z,21.30
2022-12-25T22:14:51.405Z,26.02
2022-12-25T22:18:16.288Z,24.90
2022-12-25T22:21:21.593Z,25.77
2022-12-25T22:24:26.113Z,31.25
2022-12-25T22:27:38.703Z,36.67
2022-12-25T22:30:45.310Z,38.55
2022-12-25T22:36:52.693Z,30.98
2022-12-25T22:39:56.428Z,41.40
2022-12-25T22:46:21.136Z,29.88
2022-12-25T22:49:27.049Z,31.50
2022-12-25T22:52:30.351Z,21.50
2022-12-25T22:55:34.387Z,29.52
2022-12-25T23:01:58.732Z,24.50
2022-12-25T23:05:02.953Z,28.67
2022-12-25T23:08:06.689Z,26.88
2022-12-25T23:11:11.116Z,32.60
2022-12-25T23:14:33.561Z,30.05
2022-12-25T23:21:35.117Z,24.90
2022-12-25T23:24:57.073Z,23.45
2022-12-25T23:28:01.073Z,28.05
2022-12-25T23:31:04.920Z,28.63
2022-12-25T23:34:09.478Z,17.40
2022-12-25T23:37:13.418Z,22.70
2022-12-25T23:40:17.408Z,16.48
2022-12-25T23:43:20.565Z,13.68
2022-12-25T23:46:24.655Z,9.05
2022-12-25T23:49:28.991Z,7.32
2022-12-25T23:52:33.021Z,18.05
2022-12-25T23:55:36.846Z,9.88
2022-12-25T23:58:41.115Z,17.75
